sensor_id;sensor_type;location;lat;lon;timestamp;P1;durP1;ratioP1;P2;durP2;ratioP2
53646;SDS011;39550;52.230;5.194;2024-02-15T00:02:01;9.88;;;5.88;;
53646;SDS011;39550;52.230;5.194;2024-02-15T00:04:26;14.30;;;6.15;;
53646;SDS011;39550;52.230;5.194;2024-02-15T00:06:52;12.07;;;5.70;;
53646;SDS011;39550;52.230;5.194;2024-02-15T00:09:17;13.70;;;6.63;;
53646;SDS011;39550;52.230;5.194;2024-02-15T00:11:43;11.73;;;6.68;;
53646;SDS011;39550;52.230;5.194;2024-02-15T00:14:08;12.63;;;6.65;;
53646;SDS011;39550;52.230;5.194;2024-02-15T00:16:34;13.40;;;6.35;;
53646;SDS011;39550;52.230;5.194;2024-02-15T00:19:00;14.98;;;6.78;;
53646;SDS011;39550;52.230;5.194;2024-02-15T00:21:25;13.95;;;6.78;;
53646;SDS011;39550;52.230;5.194;2024-02-15T00:23:50;14.90;;;6.88;;
53646;SDS011;39550;52.230;5.194;2024-02-15T00:26:16;12.88;;;6.47;;
53646;SDS011;39550;52.230;5.194;2024-02-15T00:28:41;14.77;;;6.60;;
53646;SDS011;39550;52.230;5.194;2024-02-15T00:31:07;11.32;;;5.47;;
53646;SDS011;39550;52.230;5.194;2024-02-15T00:33:33;9.95;;;6.40;;
53646;SDS011;39550;52.230;5.194;2024-02-15T00:35:58;18.10;;;6.97;;
53646;SDS011;39550;52.230;5.194;2024-02-15T00:38:23;12.18;;;6.80;;
53646;SDS011;39550;52.230;5.194;2024-02-15T00:40:49;12.18;;;6.05;;
53646;SDS011;39550;52.230;5.194;2024-02-15T00:43:14;11.48;;;6.30;;
53646;SDS011;39550;52.230;5.194;2024-02-15T00:45:39;11.65;;;5.78;;
53646;SDS011;39550;52.230;5.194;2024-02-15T00:48:05;11.90;;;5.68;;
53646;SDS011;39550;52.230;5.194;2024-02-15T00:50:31;13.57;;;6.90;;
53646;SDS011;39550;52.230;5.194;2024-02-15T00:52:56;11.50;;;6.25;;
53646;SDS011;39550;52.230;5.194;2024-02-15T00:55:21;13.90;;;6.65;;
53646;SDS011;39550;52.230;5.194;2024-02-15T00:57:47;13.30;;;6.43;;
53646;SDS011;39550;52.230;5.194;2024-02-15T01:00:12;12.30;;;5.80;;
53646;SDS011;39550;52.230;5.194;2024-02-15T01:02:38;14.43;;;6.00;;
53646;SDS011;39550;52.230;5.194;2024-02-15T01:05:03;13.20;;;5.88;;
53646;SDS011;39550;52.230;5.194;2024-02-15T01:07:29;10.68;;;6.40;;
53646;SDS011;39550;52.230;5.194;2024-02-15T01:09:54;10.98;;;5.93;;
53646;SDS011;39550;52.230;5.194;2024-02-15T01:12:20;14.23;;;6.50;;
53646;SDS011;39550;52.230;5.194;2024-02-15T01:14:46;11.70;;;5.90;;
53646;SDS011;39550;52.230;5.194;2024-02-15T01:17:12;10.75;;;6.00;;
53646;SDS011;39550;52.230;5.194;2024-02-15T01:19:38;11.60;;;6.05;;
53646;SDS011;39550;52.230;5.194;2024-02-15T01:22:03;11.73;;;6.22;;
53646;SDS011;39550;52.230;5.194;2024-02-15T01:24:28;10.63;;;5.43;;
53646;SDS011;39550;52.230;5.194;2024-02-15T01:26:55;10.98;;;6.35;;
53646;SDS011;39550;52.230;5.194;2024-02-15T01:29:20;12.27;;;6.25;;
53646;SDS011;39550;52.230;5.194;2024-02-15T01:31:45;10.05;;;5.55;;
53646;SDS011;39550;52.230;5.194;2024-02-15T01:34:11;8.85;;;5.45;;
53646;SDS011;39550;52.230;5.194;2024-02-15T01:36:36;10.23;;;5.47;;
53646;SDS011;39550;52.230;5.194;2024-02-15T01:39:01;10.18;;;6.57;;
53646;SDS011;39550;52.230;5.194;2024-02-15T01:41:27;11.07;;;5.88;;
53646;SDS011;39550;52.230;5.194;2024-02-15T01:43:52;8.43;;;5.30;;
53646;SDS011;39550;52.230;5.194;2024-02-15T01:46:17;12.90;;;6.07;;
53646;SDS011;39550;52.230;5.194;2024-02-15T01:48:44;10.13;;;5.43;;
53646;SDS011;39550;52.230;5.194;2024-02-15T01:51:11;11.98;;;6.05;;
53646;SDS011;39550;52.230;5.194;2024-02-15T01:53:38;12.93;;;6.03;;
53646;SDS011;39550;52.230;5.194;2024-02-15T01:56:05;8.93;;;4.95;;
53646;SDS011;39550;52.230;5.194;2024-02-15T01:58:31;12.13;;;6.07;;
53646;SDS011;39550;52.230;5.194;2024-02-15T02:00:57;10.52;;;6.03;;
53646;SDS011;39550;52.230;5.194;2024-02-15T02:03:25;10.88;;;5.53;;
53646;SDS011;39550;52.230;5.194;2024-02-15T02:05:50;15.65;;;7.55;;
53646;SDS011;39550;52.230;5.194;2024-02-15T02:08:16;11.90;;;5.63;;
53646;SDS011;39550;52.230;5.194;2024-02-15T02:10:41;10.57;;;6.07;;
53646;SDS011;39550;52.230;5.194;2024-02-15T02:13:07;10.82;;;6.43;;
53646;SDS011;39550;52.230;5.194;2024-02-15T02:15:33;11.00;;;5.70;;
53646;SDS011;39550;52.230;5.194;2024-02-15T02:18:00;12.93;;;6.75;;
53646;SDS011;39550;52.230;5.194;2024-02-15T02:20:25;12.98;;;7.38;;
53646;SDS011;39550;52.230;5.194;2024-02-15T02:22:53;9.23;;;5.50;;
53646;SDS011;39550;52.230;5.194;2024-02-15T02:25:22;10.00;;;5.97;;
53646;SDS011;39550;52.230;5.194;2024-02-15T02:27:51;12.10;;;6.88;;
53646;SDS011;39550;52.230;5.194;2024-02-15T02:30:16;11.95;;;6.90;;
53646;SDS011;39550;52.230;5.194;2024-02-15T02:32:43;12.07;;;5.90;;
53646;SDS011;39550;52.230;5.194;2024-02-15T02:35:12;9.70;;;6.03;;
53646;SDS011;39550;52.230;5.194;2024-02-15T02:37:37;13.80;;;6.60;;
53646;SDS011;39550;52.230;5.194;2024-02-15T02:40:06;11.57;;;6.57;;
53646;SDS011;39550;52.230;5.194;2024-02-15T02:45:11;13.00;;;7.35;;
53646;SDS011;39550;52.230;5.194;2024-02-15T02:47:36;10.55;;;6.40;;
53646;SDS011;39550;52.230;5.194;2024-02-15T02:50:02;10.77;;;6.10;;
53646;SDS011;39550;52.230;5.194;2024-02-15T02:52:28;11.13;;;6.50;;
53646;SDS011;39550;52.230;5.194;2024-02-15T02:54:53;13.52;;;7.50;;
53646;SDS011;39550;52.230;5.194;2024-02-15T02:57:18;12.15;;;6.88;;
53646;SDS011;39550;52.230;5.194;2024-02-15T02:59:44;13.82;;;7.32;;
53646;SDS011;39550;52.230;5.194;2024-02-15T03:02:10;13.43;;;7.20;;
53646;SDS011;39550;52.230;5.194;2024-02-15T03:04:35;11.00;;;6.95;;
53646;SDS011;39550;52.230;5.194;2024-02-15T03:07:00;11.73;;;6.60;;
53646;SDS011;39550;52.230;5.194;2024-02-15T03:09:26;14.07;;;7.43;;
53646;SDS011;39550;52.230;5.194;2024-02-15T03:11:54;13.70;;;7.55;;
53646;SDS011;39550;52.230;5.194;2024-02-15T03:14:20;12.18;;;7.18;;
53646;SDS011;39550;52.230;5.194;2024-02-15T03:16:46;11.90;;;6.78;;
53646;SDS011;39550;52.230;5.194;2024-02-15T03:19:11;12.98;;;7.43;;
53646;SDS011;39550;52.230;5.194;2024-02-15T03:21:37;13.73;;;7.18;;
53646;SDS011;39550;52.230;5.194;2024-02-15T03:24:02;11.93;;;7.47;;
53646;SDS011;39550;52.230;5.194;2024-02-15T03:26:31;15.07;;;8.23;;
53646;SDS011;39550;52.230;5.194;2024-02-15T03:29:04;12.18;;;7.18;;
53646;SDS011;39550;52.230;5.194;2024-02-15T03:31:29;13.27;;;8.18;;
53646;SDS011;39550;52.230;5.194;2024-02-15T03:33:58;13.13;;;7.45;;
53646;SDS011;39550;52.230;5.194;2024-02-15T03:36:24;15.00;;;8.50;;
53646;SDS011;39550;52.230;5.194;2024-02-15T03:38:49;13.98;;;7.40;;
53646;SDS011;39550;52.230;5.194;2024-02-15T03:41:14;13.80;;;7.90;;
53646;SDS011;39550;52.230;5.194;2024-02-15T03:43:40;12.85;;;7.13;;
53646;SDS011;39550;52.230;5.194;2024-02-15T03:46:05;13.75;;;7.82;;
53646;SDS011;39550;52.230;5.194;2024-02-15T03:48:33;13.70;;;7.28;;
53646;SDS011;39550;52.230;5.194;2024-02-15T03:50:59;12.02;;;7.57;;
53646;SDS011;39550;52.230;5.194;2024-02-15T03:53:24;11.80;;;7.32;;
53646;SDS011;39550;52.230;5.194;2024-02-15T03:55:49;13.45;;;7.53;;
53646;SDS011;39550;52.230;5.194;2024-02-15T03:58:18;9.43;;;6.33;;
53646;SDS011;39550;52.230;5.194;2024-02-15T04:00:44;13.68;;;8.38;;
53646;SDS011;39550;52.230;5.194;2024-02-15T04:03:10;14.10;;;7.90;;
53646;SDS011;39550;52.230;5.194;2024-02-15T04:05:35;13.35;;;7.65;;
53646;SDS011;39550;52.230;5.194;2024-02-15T04:08:00;12.98;;;7.40;;
53646;SDS011;39550;52.230;5.194;2024-02-15T04:10:27;11.68;;;6.93;;
53646;SDS011;39550;52.230;5.194;2024-02-15T04:12:53;14.05;;;8.15;;
53646;SDS011;39550;52.230;5.194;2024-02-15T04:15:19;14.50;;;8.30;;
53646;SDS011;39550;52.230;5.194;2024-02-15T04:17:44;14.00;;;7.38;;
53646;SDS011;39550;52.230;5.194;2024-02-15T04:20:10;15.02;;;8.25;;
53646;SDS011;39550;52.230;5.194;2024-02-15T04:22:37;13.30;;;7.03;;
53646;SDS011;39550;52.230;5.194;2024-02-15T04:25:05;12.15;;;7.75;;
53646;SDS011;39550;52.230;5.194;2024-02-15T04:27:32;13.80;;;7.60;;
53646;SDS011;39550;52.230;5.194;2024-02-15T04:29:58;14.93;;;7.20;;
53646;SDS011;39550;52.230;5.194;2024-02-15T04:32:24;12.45;;;7.00;;
53646;SDS011;39550;52.230;5.194;2024-02-15T04:34:49;15.60;;;8.15;;
53646;SDS011;39550;52.230;5.194;2024-02-15T04:37:14;13.50;;;7.65;;
53646;SDS011;39550;52.230;5.194;2024-02-15T04:39:41;14.73;;;8.48;;
53646;SDS011;39550;52.230;5.194;2024-02-15T04:42:07;13.90;;;7.57;;
53646;SDS011;39550;52.230;5.194;2024-02-15T04:44:39;13.13;;;7.70;;
53646;SDS011;39550;52.230;5.194;2024-02-15T04:47:04;15.75;;;8.15;;
53646;SDS011;39550;52.230;5.194;2024-02-15T04:49:30;14.07;;;7.32;;
53646;SDS011;39550;52.230;5.194;2024-02-15T04:51:55;14.65;;;8.40;;
53646;SDS011;39550;52.230;5.194;2024-02-15T04:54:22;12.52;;;8.23;;
53646;SDS011;39550;52.230;5.194;2024-02-15T04:56:47;13.65;;;7.75;;
53646;SDS011;39550;52.230;5.194;2024-02-15T04:59:13;14.43;;;7.65;;
53646;SDS011;39550;52.230;5.194;2024-02-15T05:01:40;13.65;;;7.40;;
53646;SDS011;39550;52.230;5.194;2024-02-15T05:04:07;12.95;;;7.03;;
53646;SDS011;39550;52.230;5.194;2024-02-15T05:06:33;11.88;;;7.10;;
53646;SDS011;39550;52.230;5.194;2024-02-15T05:08:58;12.48;;;7.65;;
53646;SDS011;39550;52.230;5.194;2024-02-15T05:11:25;12.95;;;7.88;;
53646;SDS011;39550;52.230;5.194;2024-02-15T05:13:51;13.68;;;7.03;;
53646;SDS011;39550;52.230;5.194;2024-02-15T05:16:17;10.65;;;7.28;;
53646;SDS011;39550;52.230;5.194;2024-02-15T05:18:42;14.68;;;7.40;;
53646;SDS011;39550;52.230;5.194;2024-02-15T05:21:08;12.60;;;7.20;;
53646;SDS011;39550;52.230;5.194;2024-02-15T05:23:34;14.65;;;7.55;;
53646;SDS011;39550;52.230;5.194;2024-02-15T05:26:06;13.30;;;6.93;;
53646;SDS011;39550;52.230;5.194;2024-02-15T05:28:32;13.20;;;7.32;;
53646;SDS011;39550;52.230;5.194;2024-02-15T05:31:10;13.27;;;7.55;;
53646;SDS011;39550;52.230;5.194;2024-02-15T05:33:37;10.85;;;7.15;;
53646;SDS011;39550;52.230;5.194;2024-02-15T05:36:07;14.63;;;7.72;;
53646;SDS011;39550;52.230;5.194;2024-02-15T05:38:33;12.73;;;7.70;;
53646;SDS011;39550;52.230;5.194;2024-02-15T05:40:59;13.43;;;7.60;;
53646;SDS011;39550;52.230;5.194;2024-02-15T05:43:24;12.30;;;7.38;;
53646;SDS011;39550;52.230;5.194;2024-02-15T05:45:50;15.15;;;7.85;;
53646;SDS011;39550;52.230;5.194;2024-02-15T05:48:17;12.57;;;7.03;;
53646;SDS011;39550;52.230;5.194;2024-02-15T05:50:42;12.02;;;7.63;;
53646;SDS011;39550;52.230;5.194;2024-02-15T05:53:08;13.55;;;7.70;;
53646;SDS011;39550;52.230;5.194;2024-02-15T05:55:33;13.63;;;6.70;;
53646;SDS011;39550;52.230;5.194;2024-02-15T05:57:59;11.05;;;6.97;;
53646;SDS011;39550;52.230;5.194;2024-02-15T06:00:24;12.48;;;7.50;;
53646;SDS011;39550;52.230;5.194;2024-02-15T06:02:49;12.80;;;8.60;;
53646;SDS011;39550;52.230;5.194;2024-02-15T06:05:15;13.88;;;8.18;;
53646;SDS011;39550;52.230;5.194;2024-02-15T06:07:42;13.75;;;8.10;;
53646;SDS011;39550;52.230;5.194;2024-02-15T06:10:07;14.15;;;7.90;;
53646;SDS011;39550;52.230;5.194;2024-02-15T06:12:33;14.85;;;8.35;;
53646;SDS011;39550;52.230;5.194;2024-02-15T06:14:58;14.63;;;7.28;;
53646;SDS011;39550;52.230;5.194;2024-02-15T06:17:24;11.55;;;6.90;;
53646;SDS011;39550;52.230;5.194;2024-02-15T06:19:49;14.57;;;7.63;;
53646;SDS011;39550;52.230;5.194;2024-02-15T06:22:14;15.00;;;8.48;;
53646;SDS011;39550;52.230;5.194;2024-02-15T06:24:40;15.73;;;8.45;;
53646;SDS011;39550;52.230;5.194;2024-02-15T06:27:06;15.88;;;8.77;;
53646;SDS011;39550;52.230;5.194;2024-02-15T06:29:32;12.32;;;7.35;;
53646;SDS011;39550;52.230;5.194;2024-02-15T06:32:16;15.60;;;8.82;;
53646;SDS011;39550;52.230;5.194;2024-02-15T06:35:00;13.80;;;8.38;;
53646;SDS011;39550;52.230;5.194;2024-02-15T06:37:44;17.52;;;9.80;;
53646;SDS011;39550;52.230;5.194;2024-02-15T06:40:27;16.25;;;8.50;;
53646;SDS011;39550;52.230;5.194;2024-02-15T06:42:53;15.55;;;8.70;;
53646;SDS011;39550;52.230;5.194;2024-02-15T06:45:19;15.60;;;8.73;;
53646;SDS011;39550;52.230;5.194;2024-02-15T06:47:44;13.90;;;7.90;;
53646;SDS011;39550;52.230;5.194;2024-02-15T06:50:11;18.25;;;9.10;;
53646;SDS011;39550;52.230;5.194;2024-02-15T06:52:37;15.88;;;9.43;;
53646;SDS011;39550;52.230;5.194;2024-02-15T06:55:03;17.75;;;9.32;;
53646;SDS011;39550;52.230;5.194;2024-02-15T06:57:30;14.02;;;9.07;;
53646;SDS011;39550;52.230;5.194;2024-02-15T06:59:55;15.52;;;9.20;;
53646;SDS011;39550;52.230;5.194;2024-02-15T07:02:23;15.07;;;9.35;;
53646;SDS011;39550;52.230;5.194;2024-02-15T07:04:48;18.90;;;10.48;;
53646;SDS011;39550;52.230;5.194;2024-02-15T07:07:14;17.73;;;10.80;;
53646;SDS011;39550;52.230;5.194;2024-02-15T07:09:39;16.38;;;10.05;;
53646;SDS011;39550;52.230;5.194;2024-02-15T07:12:05;15.38;;;9.43;;
53646;SDS011;39550;52.230;5.194;2024-02-15T07:14:30;18.23;;;10.05;;
53646;SDS011;39550;52.230;5.194;2024-02-15T07:16:56;19.70;;;10.35;;
53646;SDS011;39550;52.230;5.194;2024-02-15T07:19:23;16.48;;;9.60;;
53646;SDS011;39550;52.230;5.194;2024-02-15T07:21:50;17.45;;;10.02;;
53646;SDS011;39550;52.230;5.194;2024-02-15T07:24:16;20.95;;;10.60;;
53646;SDS011;39550;52.230;5.194;2024-02-15T07:26:41;19.95;;;10.60;;
53646;SDS011;39550;52.230;5.194;2024-02-15T07:29:06;17.05;;;11.23;;
53646;SDS011;39550;52.230;5.194;2024-02-15T07:31:33;17.83;;;10.50;;
53646;SDS011;39550;52.230;5.194;2024-02-15T07:33:58;20.02;;;10.68;;
53646;SDS011;39550;52.230;5.194;2024-02-15T07:36:24;18.38;;;11.25;;
53646;SDS011;39550;52.230;5.194;2024-02-15T07:38:51;19.92;;;10.60;;
53646;SDS011;39550;52.230;5.194;2024-02-15T07:41:18;23.55;;;12.38;;
53646;SDS011;39550;52.230;5.194;2024-02-15T07:43:47;18.08;;;10.00;;
53646;SDS011;39550;52.230;5.194;2024-02-15T07:46:13;16.25;;;9.98;;
53646;SDS011;39550;52.230;5.194;2024-02-15T07:48:41;16.15;;;10.27;;
53646;SDS011;39550;52.230;5.194;2024-02-15T07:51:10;15.23;;;8.23;;
53646;SDS011;39550;52.230;5.194;2024-02-15T07:56:05;17.63;;;9.60;;
53646;SDS011;39550;52.230;5.194;2024-02-15T07:58:31;15.40;;;9.75;;
53646;SDS011;39550;52.230;5.194;2024-02-15T08:00:56;15.32;;;8.95;;
53646;SDS011;39550;52.230;5.194;2024-02-15T08:03:22;16.23;;;9.48;;
53646;SDS011;39550;52.230;5.194;2024-02-15T08:05:48;16.17;;;10.00;;
53646;SDS011;39550;52.230;5.194;2024-02-15T08:08:13;15.23;;;9.65;;
53646;SDS011;39550;52.230;5.194;2024-02-15T08:10:38;13.98;;;8.52;;
53646;SDS011;39550;52.230;5.194;2024-02-15T08:13:04;12.95;;;8.70;;
53646;SDS011;39550;52.230;5.194;2024-02-15T08:15:29;13.18;;;8.70;;
53646;SDS011;39550;52.230;5.194;2024-02-15T08:17:55;12.02;;;8.65;;
53646;SDS011;39550;52.230;5.194;2024-02-15T08:20:20;15.85;;;9.50;;
53646;SDS011;39550;52.230;5.194;2024-02-15T08:22:48;14.57;;;7.90;;
53646;SDS011;39550;52.230;5.194;2024-02-15T08:25:14;15.15;;;9.40;;
53646;SDS011;39550;52.230;5.194;2024-02-15T08:27:43;13.80;;;8.13;;
53646;SDS011;39550;52.230;5.194;2024-02-15T08:30:14;14.63;;;9.00;;
53646;SDS011;39550;52.230;5.194;2024-02-15T08:32:41;13.55;;;9.07;;
53646;SDS011;39550;52.230;5.194;2024-02-15T08:35:09;13.85;;;8.30;;
53646;SDS011;39550;52.230;5.194;2024-02-15T08:37:36;12.07;;;7.60;;
53646;SDS011;39550;52.230;5.194;2024-02-15T08:40:03;14.25;;;8.38;;
53646;SDS011;39550;52.230;5.194;2024-02-15T08:42:29;12.45;;;8.15;;
53646;SDS011;39550;52.230;5.194;2024-02-15T08:44:55;12.63;;;8.23;;
53646;SDS011;39550;52.230;5.194;2024-02-15T08:47:20;11.25;;;7.60;;
53646;SDS011;39550;52.230;5.194;2024-02-15T08:49:47;13.57;;;8.32;;
53646;SDS011;39550;52.230;5.194;2024-02-15T08:52:12;12.00;;;8.05;;
53646;SDS011;39550;52.230;5.194;2024-02-15T08:54:37;12.02;;;7.63;;
53646;SDS011;39550;52.230;5.194;2024-02-15T08:57:06;13.70;;;8.73;;
53646;SDS011;39550;52.230;5.194;2024-02-15T08:59:31;12.98;;;8.50;;
53646;SDS011;39550;52.230;5.194;2024-02-15T09:01:58;13.05;;;7.53;;
53646;SDS011;39550;52.230;5.194;2024-02-15T09:04:25;13.25;;;8.07;;
53646;SDS011;39550;52.230;5.194;2024-02-15T09:06:51;10.57;;;7.13;;
53646;SDS011;39550;52.230;5.194;2024-02-15T09:09:17;10.55;;;6.68;;
53646;SDS011;39550;52.230;5.194;2024-02-15T09:11:42;12.13;;;7.40;;
53646;SDS011;39550;52.230;5.194;2024-02-15T09:14:08;12.30;;;7.13;;
53646;SDS011;39550;52.230;5.194;2024-02-15T09:16:36;11.63;;;7.25;;
53646;SDS011;39550;52.230;5.194;2024-02-15T09:19:01;11.38;;;7.20;;
53646;SDS011;39550;52.230;5.194;2024-02-15T09:21:27;11.20;;;6.78;;
53646;SDS011;39550;52.230;5.194;2024-02-15T09:23:54;10.13;;;6.45;;
53646;SDS011;39550;52.230;5.194;2024-02-15T09:26:19;10.48;;;7.00;;
53646;SDS011;39550;52.230;5.194;2024-02-15T09:28:45;12.52;;;7.85;;
53646;SDS011;39550;52.230;5.194;2024-02-15T09:31:12;11.30;;;7.20;;
53646;SDS011;39550;52.230;5.194;2024-02-15T09:33:38;11.90;;;7.32;;
53646;SDS011;39550;52.230;5.194;2024-02-15T09:36:04;12.35;;;6.93;;
53646;SDS011;39550;52.230;5.194;2024-02-15T09:38:29;9.68;;;6.45;;
53646;SDS011;39550;52.230;5.194;2024-02-15T09:40:55;12.82;;;7.60;;
53646;SDS011;39550;52.230;5.194;2024-02-15T09:43:20;11.30;;;6.30;;
53646;SDS011;39550;52.230;5.194;2024-02-15T09:45:46;10.82;;;6.70;;
53646;SDS011;39550;52.230;5.194;2024-02-15T09:48:13;10.40;;;6.40;;
53646;SDS011;39550;52.230;5.194;2024-02-15T09:50:41;9.65;;;6.53;;
53646;SDS011;39550;52.230;5.194;2024-02-15T09:53:07;11.77;;;7.35;;
53646;SDS011;39550;52.230;5.194;2024-02-15T09:55:34;8.77;;;6.78;;
53646;SDS011;39550;52.230;5.194;2024-02-15T09:58:00;9.82;;;6.68;;
53646;SDS011;39550;52.230;5.194;2024-02-15T10:00:25;9.85;;;6.60;;
53646;SDS011;39550;52.230;5.194;2024-02-15T10:02:51;10.35;;;7.07;;
53646;SDS011;39550;52.230;5.194;2024-02-15T10:05:18;9.68;;;6.10;;
53646;SDS011;39550;52.230;5.194;2024-02-15T10:07:44;9.35;;;6.60;;
53646;SDS011;39550;52.230;5.194;2024-02-15T10:10:20;11.18;;;7.03;;
53646;SDS011;39550;52.230;5.194;2024-02-15T10:12:47;10.88;;;6.80;;
53646;SDS011;39550;52.230;5.194;2024-02-15T10:18:01;9.65;;;5.95;;
53646;SDS011;39550;52.230;5.194;2024-02-15T10:20:28;9.73;;;6.25;;
53646;SDS011;39550;52.230;5.194;2024-02-15T10:23:14;9.68;;;6.55;;
53646;SDS011;39550;52.230;5.194;2024-02-15T10:25:42;11.45;;;6.07;;
53646;SDS011;39550;52.230;5.194;2024-02-15T10:28:09;11.55;;;6.47;;
53646;SDS011;39550;52.230;5.194;2024-02-15T10:30:40;10.40;;;6.15;;
53646;SDS011;39550;52.230;5.194;2024-02-15T10:33:10;9.77;;;6.75;;
53646;SDS011;39550;52.230;5.194;2024-02-15T10:35:45;9.45;;;6.35;;
53646;SDS011;39550;52.230;5.194;2024-02-15T10:38:10;11.38;;;7.18;;
53646;SDS011;39550;52.230;5.194;2024-02-15T10:40:37;12.50;;;6.60;;
53646;SDS011;39550;52.230;5.194;2024-02-15T10:43:03;12.70;;;7.55;;
53646;SDS011;39550;52.230;5.194;2024-02-15T10:45:30;10.35;;;6.40;;
53646;SDS011;39550;52.230;5.194;2024-02-15T10:47:56;12.10;;;6.82;;
53646;SDS011;39550;52.230;5.194;2024-02-15T10:50:22;11.38;;;6.55;;
53646;SDS011;39550;52.230;5.194;2024-02-15T10:52:53;11.10;;;7.03;;
53646;SDS011;39550;52.230;5.194;2024-02-15T10:58:05;10.80;;;6.47;;
53646;SDS011;39550;52.230;5.194;2024-02-15T11:00:32;12.02;;;6.72;;
53646;SDS011;39550;52.230;5.194;2024-02-15T11:05:31;9.68;;;6.10;;
53646;SDS011;39550;52.230;5.194;2024-02-15T11:07:59;11.75;;;6.75;;
53646;SDS011;39550;52.230;5.194;2024-02-15T11:10:29;11.15;;;6.57;;
53646;SDS011;39550;52.230;5.194;2024-02-15T11:12:55;9.90;;;6.78;;
53646;SDS011;39550;52.230;5.194;2024-02-15T11:18:01;9.93;;;6.78;;
53646;SDS011;39550;52.230;5.194;2024-02-15T11:22:57;11.25;;;6.85;;
53646;SDS011;39550;52.230;5.194;2024-02-15T11:25:37;11.77;;;6.60;;
53646;SDS011;39550;52.230;5.194;2024-02-15T11:28:46;9.93;;;6.97;;
53646;SDS011;39550;52.230;5.194;2024-02-15T11:30:55;10.60;;;5.85;;
53646;SDS011;39550;52.230;5.194;2024-02-15T11:33:30;12.27;;;6.97;;
53646;SDS011;39550;52.230;5.194;2024-02-15T11:36:03;8.52;;;6.35;;
53646;SDS011;39550;52.230;5.194;2024-02-15T11:38:33;9.63;;;6.00;;
53646;SDS011;39550;52.230;5.194;2024-02-15T11:41:00;9.60;;;6.10;;
53646;SDS011;39550;52.230;5.194;2024-02-15T11:46:23;12.52;;;6.85;;
53646;SDS011;39550;52.230;5.194;2024-02-15T11:48:51;13.70;;;7.22;;
53646;SDS011;39550;52.230;5.194;2024-02-15T11:51:27;10.75;;;6.65;;
53646;SDS011;39550;52.230;5.194;2024-02-15T11:59:38;10.82;;;7.50;;
53646;SDS011;39550;52.230;5.194;2024-02-15T12:02:18;13.43;;;7.35;;
53646;SDS011;39550;52.230;5.194;2024-02-15T12:05:03;11.10;;;7.05;;
53646;SDS011;39550;52.230;5.194;2024-02-15T12:07:58;14.75;;;8.05;;
53646;SDS011;39550;52.230;5.194;2024-02-15T12:10:42;14.23;;;7.28;;
53646;SDS011;39550;52.230;5.194;2024-02-15T12:13:26;13.63;;;7.30;;
53646;SDS011;39550;52.230;5.194;2024-02-15T12:16:10;13.40;;;7.70;;
53646;SDS011;39550;52.230;5.194;2024-02-15T12:18:58;11.20;;;6.53;;
53646;SDS011;39550;52.230;5.194;2024-02-15T12:21:24;12.38;;;7.25;;
53646;SDS011;39550;52.230;5.194;2024-02-15T12:23:52;10.73;;;6.65;;
53646;SDS011;39550;52.230;5.194;2024-02-15T12:26:21;13.75;;;7.05;;
53646;SDS011;39550;52.230;5.194;2024-02-15T12:28:50;10.98;;;6.88;;
53646;SDS011;39550;52.230;5.194;2024-02-15T12:31:19;12.07;;;7.18;;
53646;SDS011;39550;52.230;5.194;2024-02-15T12:33:45;11.90;;;7.00;;
53646;SDS011;39550;52.230;5.194;2024-02-15T12:36:11;14.00;;;7.25;;
53646;SDS011;39550;52.230;5.194;2024-02-15T12:38:37;14.07;;;7.63;;
53646;SDS011;39550;52.230;5.194;2024-02-15T12:41:03;13.93;;;7.15;;
53646;SDS011;39550;52.230;5.194;2024-02-15T12:43:43;14.02;;;8.13;;
53646;SDS011;39550;52.230;5.194;2024-02-15T12:46:08;12.40;;;7.70;;
53646;SDS011;39550;52.230;5.194;2024-02-15T12:48:33;11.43;;;6.85;;
53646;SDS011;39550;52.230;5.194;2024-02-15T12:51:00;13.50;;;7.47;;
53646;SDS011;39550;52.230;5.194;2024-02-15T12:53:38;9.35;;;7.35;;
53646;SDS011;39550;52.230;5.194;2024-02-15T12:56:03;11.38;;;7.43;;
53646;SDS011;39550;52.230;5.194;2024-02-15T12:58:31;13.63;;;7.45;;
53646;SDS011;39550;52.230;5.194;2024-02-15T13:00:56;12.20;;;7.35;;
53646;SDS011;39550;52.230;5.194;2024-02-15T13:03:23;11.43;;;6.80;;
53646;SDS011;39550;52.230;5.194;2024-02-15T13:05:49;12.15;;;7.00;;
53646;SDS011;39550;52.230;5.194;2024-02-15T13:08:14;11.07;;;6.93;;
53646;SDS011;39550;52.230;5.194;2024-02-15T13:10:42;11.18;;;7.18;;
53646;SDS011;39550;52.230;5.194;2024-02-15T13:13:07;12.02;;;7.22;;
53646;SDS011;39550;52.230;5.194;2024-02-15T13:15:35;11.20;;;7.10;;
53646;SDS011;39550;52.230;5.194;2024-02-15T13:18:02;13.07;;;7.43;;
53646;SDS011;39550;52.230;5.194;2024-02-15T13:20:30;12.85;;;7.43;;
53646;SDS011;39550;52.230;5.194;2024-02-15T13:23:00;13.23;;;7.28;;
53646;SDS011;39550;52.230;5.194;2024-02-15T13:25:53;12.02;;;7.38;;
53646;SDS011;39550;52.230;5.194;2024-02-15T13:28:19;13.32;;;7.38;;
53646;SDS011;39550;52.230;5.194;2024-02-15T13:30:44;10.48;;;7.00;;
53646;SDS011;39550;52.230;5.194;2024-02-15T13:33:13;12.20;;;6.78;;
53646;SDS011;39550;52.230;5.194;2024-02-15T13:35:38;9.80;;;6.78;;
53646;SDS011;39550;52.230;5.194;2024-02-15T13:38:04;10.90;;;6.80;;
53646;SDS011;39550;52.230;5.194;2024-02-15T13:40:29;9.57;;;6.75;;
53646;SDS011;39550;52.230;5.194;2024-02-15T13:42:58;9.63;;;6.55;;
53646;SDS011;39550;52.230;5.194;2024-02-15T13:45:28;10.32;;;6.25;;
53646;SDS011;39550;52.230;5.194;2024-02-15T13:47:56;8.85;;;6.13;;
53646;SDS011;39550;52.230;5.194;2024-02-15T13:50:22;14.18;;;6.55;;
53646;SDS011;39550;52.230;5.194;2024-02-15T13:52:48;11.25;;;6.95;;
53646;SDS011;39550;52.230;5.194;2024-02-15T13:55:15;11.90;;;6.60;;
53646;SDS011;39550;52.230;5.194;2024-02-15T13:57:42;11.05;;;6.80;;
53646;SDS011;39550;52.230;5.194;2024-02-15T14:00:12;10.25;;;6.38;;
53646;SDS011;39550;52.230;5.194;2024-02-15T14:02:40;12.25;;;6.78;;
53646;SDS011;39550;52.230;5.194;2024-02-15T14:05:06;11.48;;;6.70;;
53646;SDS011;39550;52.230;5.194;2024-02-15T14:07:33;10.40;;;5.82;;
53646;SDS011;39550;52.230;5.194;2024-02-15T14:10:01;10.40;;;5.97;;
53646;SDS011;39550;52.230;5.194;2024-02-15T14:12:28;10.18;;;5.95;;
53646;SDS011;39550;52.230;5.194;2024-02-15T14:14:53;8.32;;;5.60;;
53646;SDS011;39550;52.230;5.194;2024-02-15T14:17:19;9.55;;;5.57;;
53646;SDS011;39550;52.230;5.194;2024-02-15T14:19:45;10.15;;;5.35;;
53646;SDS011;39550;52.230;5.194;2024-02-15T14:22:11;10.40;;;6.45;;
53646;SDS011;39550;52.230;5.194;2024-02-15T14:24:41;10.07;;;6.20;;
53646;SDS011;39550;52.230;5.194;2024-02-15T14:27:06;10.05;;;5.50;;
53646;SDS011;39550;52.230;5.194;2024-02-15T14:29:32;8.60;;;5.22;;
53646;SDS011;39550;52.230;5.194;2024-02-15T14:32:00;10.57;;;5.97;;
53646;SDS011;39550;52.230;5.194;2024-02-15T14:34:44;7.95;;;4.90;;
53646;SDS011;39550;52.230;5.194;2024-02-15T14:37:09;10.82;;;5.78;;
53646;SDS011;39550;52.230;5.194;2024-02-15T14:39:35;8.60;;;5.07;;
53646;SDS011;39550;52.230;5.194;2024-02-15T14:42:00;11.77;;;5.75;;
53646;SDS011;39550;52.230;5.194;2024-02-15T14:44:25;8.23;;;5.57;;
53646;SDS011;39550;52.230;5.194;2024-02-15T14:46:50;7.65;;;4.57;;
53646;SDS011;39550;52.230;5.194;2024-02-15T14:49:16;10.05;;;5.40;;
53646;SDS011;39550;52.230;5.194;2024-02-15T14:51:41;8.73;;;5.38;;
53646;SDS011;39550;52.230;5.194;2024-02-15T14:54:07;10.30;;;5.35;;
53646;SDS011;39550;52.230;5.194;2024-02-15T14:56:33;9.52;;;5.18;;
53646;SDS011;39550;52.230;5.194;2024-02-15T14:58:58;10.05;;;5.15;;
53646;SDS011;39550;52.230;5.194;2024-02-15T15:01:25;8.40;;;5.13;;
53646;SDS011;39550;52.230;5.194;2024-02-15T15:03:55;9.68;;;5.30;;